createdAt,value
2023-04-29T00:30:44.973Z,100431.91
2023-04-29T00:34:46.414Z,100446.88
2023-04-29T00:38:47.841Z,100425.84
2023-04-29T00:42:49.354Z,100436.03
2023-04-29T00:46:50.764Z,100435.00
2023-04-29T00:50:53.043Z,100435.00
2023-04-29T00:54:54.701Z,100440.66
2023-04-29T00:58:57.345Z,100444.72
2023-04-29T01:02:59.751Z,100442.38
2023-04-29T01:07:21.697Z,100442.53
2023-04-29T01:11:28.849Z,100444.56
2023-04-29T01:15:40.582Z,100434.72
2023-04-29T01:19:47.839Z,100432.59
2023-04-29T01:23:55.831Z,100427.72
2023-04-29T01:28:03.913Z,100434.63
2023-04-29T01:32:11.577Z,100445.69
2023-04-29T01:36:23.670Z,100446.22
2023-04-29T01:40:43.088Z,100440.66
2023-04-29T01:44:46.426Z,100453.13
2023-04-29T01:48:47.829Z,100438.22
2023-04-29T01:52:49.261Z,100434.03
2023-04-29T01:56:51.973Z,100437.97
2023-04-29T02:00:53.802Z,100425.88
2023-04-29T02:04:55.887Z,100435.81
2023-04-29T02:09:00.544Z,100439.84
2023-04-29T02:13:02.584Z,100441.69
2023-04-29T02:17:04.053Z,100442.31
2023-04-29T02:21:05.656Z,100439.16
2023-04-29T02:25:07.420Z,100438.22
2023-04-29T02:29:09.999Z,100435.13
2023-04-29T02:33:11.566Z,100430.59
2023-04-29T02:37:13.067Z,100433.13
2023-04-29T02:41:18.192Z,100437.91
2023-04-29T02:45:19.706Z,100436.00
2023-04-29T02:49:21.390Z,100441.00
2023-04-29T02:53:23.318Z,100436.03
2023-04-29T02:57:24.725Z,100433.59
2023-04-29T03:01:26.276Z,100433.41
2023-04-29T03:05:27.794Z,100433.59
2023-04-29T03:09:29.379Z,100432.59
2023-04-29T03:13:30.841Z,100431.88
2023-04-29T03:17:32.876Z,100435.19
2023-04-29T03:21:34.338Z,100428.59
2023-04-29T03:25:36.954Z,100431.03
2023-04-29T03:29:38.475Z,100426.41
2023-04-29T03:33:39.918Z,100430.47
2023-04-29T03:37:44.153Z,100423.69
2023-04-29T03:41:47.729Z,100425.16
2023-04-29T03:45:49.253Z,100424.25
2023-04-29T03:49:50.994Z,100423.72
2023-04-29T03:53:54.504Z,100424.41
2023-04-29T03:57:55.989Z,100427.72
2023-04-29T04:01:58.471Z,100430.00
2023-04-29T04:05:59.962Z,100431.50
2023-04-29T04:10:01.536Z,100437.69
2023-04-29T04:14:03.087Z,100439.03
2023-04-29T04:18:04.552Z,100448.59
2023-04-29T04:22:06.098Z,100448.06
2023-04-29T04:26:07.683Z,100454.22
2023-04-29T04:30:09.613Z,100445.72
2023-04-29T04:34:11.130Z,100449.44
2023-04-29T04:38:12.629Z,100450.56
2023-04-29T04:42:14.381Z,100451.28
2023-04-29T04:46:17.394Z,100457.41
2023-04-29T04:50:20.228Z,100454.50
2023-04-29T04:54:21.648Z,100449.69
2023-04-29T04:58:23.090Z,100466.50
2023-04-29T05:02:24.810Z,100458.06
2023-04-29T05:06:26.674Z,100455.03
2023-04-29T05:10:28.149Z,100456.59
2023-04-29T05:14:29.550Z,100463.19
2023-04-29T05:18:30.966Z,100465.03
2023-04-29T05:22:32.487Z,100470.09
2023-04-29T05:26:33.996Z,100474.72
2023-04-29T05:30:35.698Z,100470.53
2023-04-29T05:34:37.304Z,100478.19
2023-04-29T05:38:39.263Z,100484.53
2023-04-29T05:42:40.673Z,100474.91
2023-04-29T05:46:42.295Z,100480.06
2023-04-29T05:50:44.253Z,100481.13
2023-04-29T05:54:45.744Z,100484.63
2023-04-29T05:58:47.159Z,100484.00
2023-04-29T06:02:58.102Z,100479.13
2023-04-29T06:07:00.451Z,100494.25
2023-04-29T06:11:03.541Z,100489.41
2023-04-29T06:15:05.746Z,100497.34
2023-04-29T06:19:07.182Z,100494.81
2023-04-29T06:23:08.791Z,100493.81
2023-04-29T06:27:12.840Z,100501.94
2023-04-29T06:31:14.331Z,100500.38
2023-04-29T06:35:16.044Z,100503.25
2023-04-29T06:39:17.470Z,100502.00
2023-04-29T06:43:18.884Z,100520.41
2023-04-29T06:47:20.478Z,100515.88
2023-04-29T06:51:21.991Z,100521.63
2023-04-29T06:55:23.389Z,100520.56
2023-04-29T06:59:24.845Z,100532.00
2023-04-29T07:03:26.429Z,100529.97
2023-04-29T07:07:28.081Z,100536.97
2023-04-29T07:11:29.808Z,100545.19
2023-04-29T07:15:34.524Z,100542.22
2023-04-29T07:19:36.150Z,100551.19
2023-04-29T07:23:37.578Z,100549.63
2023-04-29T07:27:39.109Z,100554.94
2023-04-29T07:31:40.546Z,100554.47
2023-04-29T07:35:43.222Z,100560.22
2023-04-29T07:39:44.741Z,100564.22
2023-04-29T07:43:46.207Z,100571.31
2023-04-29T07:47:48.776Z,100577.22
2023-04-29T07:51:50.361Z,100576.19
2023-04-29T07:55:51.857Z,100588.53
2023-04-29T07:59:53.961Z,100590.91
2023-04-29T08:03:55.654Z,100602.41
2023-04-29T08:07:58.667Z,100612.09
2023-04-29T08:12:00.080Z,100618.84
2023-04-29T08:16:01.605Z,100631.84
2023-04-29T08:20:03.588Z,100637.88
2023-04-29T08:24:05.873Z,100634.91
2023-04-29T08:28:07.590Z,100650.31
2023-04-29T08:32:09.150Z,100653.03
2023-04-29T08:36:10.806Z,100661.25
2023-04-29T08:40:13.560Z,100675.34
2023-04-29T08:44:17.285Z,100687.16
2023-04-29T08:48:19.591Z,100683.88
2023-04-29T08:52:21.127Z,100689.88
2023-04-29T08:56:23.170Z,100704.03
2023-04-29T09:00:25.235Z,100705.22
2023-04-29T09:04:32.666Z,100711.56
2023-04-29T09:08:34.219Z,100717.97
2023-04-29T09:12:36.178Z,100729.72
2023-04-29T09:16:38.821Z,100727.81
2023-04-29T09:20:40.314Z,100734.78
2023-04-29T09:24:43.723Z,100737.28
2023-04-29T09:28:45.332Z,100739.97
2023-04-29T09:33:03.670Z,100745.94
2023-04-29T09:37:24.509Z,100767.19
2023-04-29T09:41:25.929Z,100767.69
2023-04-29T09:45:33.679Z,100784.28
2023-04-29T09:49:44.680Z,100790.34
2023-04-29T09:53:46.540Z,100788.72
2023-04-29T09:57:48.042Z,100795.81
2023-04-29T10:01:51.454Z,100804.94
2023-04-29T10:05:53.508Z,100818.00
2023-04-29T10:09:55.940Z,100817.09
2023-04-29T10:13:58.575Z,100818.00
2023-04-29T10:18:12.417Z,100825.78
2023-04-29T10:22:22.570Z,100828.19
2023-04-29T10:26:28.471Z,100828.00
2023-04-29T10:30:31.724Z,100828.59
2023-04-29T10:34:34.932Z,100832.16
2023-04-29T10:38:41.655Z,100843.78
2023-04-29T10:42:48.070Z,100842.81
2023-04-29T10:46:49.919Z,100856.22
2023-04-29T10:50:51.298Z,100864.88
2023-04-29T10:55:12.377Z,100864.88
2023-04-29T10:59:16.053Z,100856.72
2023-04-29T11:03:59.874Z,100869.53
2023-04-29T11:08:11.005Z,100870.53
2023-04-29T11:12:13.531Z,100872.91
2023-04-29T11:16:15.134Z,100864.13
2023-04-29T11:20:16.785Z,100864.47
2023-04-29T11:24:18.252Z,100870.47
2023-04-29T11:28:20.209Z,100884.81
2023-04-29T11:32:23.186Z,100880.59
2023-04-29T11:36:25.659Z,100887.44
2023-04-29T11:40:27.209Z,100890.78
2023-04-29T11:44:28.645Z,100895.00
2023-04-29T11:48:30.323Z,100894.28
2023-04-29T11:52:32.703Z,100907.00
2023-04-29T11:56:34.190Z,100903.13
2023-04-29T12:00:36.106Z,100906.97
2023-04-29T12:04:48.252Z,100919.75
2023-04-29T12:08:51.140Z,100921.66
2023-04-29T12:12:52.969Z,100919.19
2023-04-29T12:16:54.506Z,100920.28
2023-04-29T12:20:56.607Z,100933.41
2023-04-29T12:24:58.130Z,100922.84
2023-04-29T12:28:59.759Z,100929.06
2023-04-29T12:33:02.524Z,100929.38
2023-04-29T12:37:03.966Z,100936.34
2023-04-29T12:41:07.821Z,100941.41
2023-04-29T12:45:09.658Z,100950.03
2023-04-29T12:49:11.251Z,100946.97
2023-04-29T12:53:13.387Z,100940.56
2023-04-29T12:57:14.789Z,100945.47
2023-04-29T13:01:18.381Z,100944.03
2023-04-29T13:05:20.617Z,100949.00
2023-04-29T13:09:22.134Z,100949.44
2023-04-29T13:13:25.399Z,100946.34
2023-04-29T13:17:26.912Z,100956.75
2023-04-29T13:21:28.580Z,100951.66
2023-04-29T13:25:30.049Z,100965.06
2023-04-29T13:29:31.637Z,100965.28
2023-04-29T13:33:33.128Z,100971.38
2023-04-29T13:37:34.800Z,100961.13
2023-04-29T13:41:36.352Z,100971.16
2023-04-29T13:45:41.308Z,100973.78
2023-04-29T13:50:19.661Z,100977.66
2023-04-29T14:02:25.103Z,100981.94
2023-04-29T14:06:28.285Z,100992.59
2023-04-29T14:10:29.814Z,100988.38
2023-04-29T14:14:31.365Z,100998.56
2023-04-29T14:18:33.067Z,101003.94
2023-04-29T14:22:34.476Z,101003.75
2023-04-29T14:26:37.006Z,101005.84
2023-04-29T14:30:38.567Z,101011.06
2023-04-29T14:34:40.004Z,101009.06
2023-04-29T14:38:41.457Z,101014.47
2023-04-29T14:42:42.989Z,101013.91
2023-04-29T14:46:44.508Z,101014.84
2023-04-29T14:50:46.194Z,101023.41
2023-04-29T14:54:47.652Z,101022.31
2023-04-29T14:58:49.109Z,101036.09
2023-04-29T15:02:50.715Z,101034.69
2023-04-29T15:06:52.238Z,101031.03
2023-04-29T15:10:53.781Z,101039.41
2023-04-29T15:14:55.458Z,101041.91
2023-04-29T15:18:57.098Z,101033.56
2023-04-29T15:22:58.668Z,101031.72
2023-04-29T15:27:00.129Z,101044.13
2023-04-29T15:31:03.720Z,101039.25
2023-04-29T15:35:06.667Z,101047.63
2023-04-29T15:39:10.863Z,101042.31
2023-04-29T15:43:12.282Z,101048.00
2023-04-29T15:47:15.538Z,101047.03
2023-04-29T15:51:17.012Z,101060.31
2023-04-29T15:55:18.775Z,101065.91
2023-04-29T15:59:20.273Z,101063.72
2023-04-29T16:03:21.889Z,101071.88
2023-04-29T16:07:23.369Z,101080.31
2023-04-29T16:11:24.776Z,101079.78
2023-04-29T16:15:27.334Z,101080.50
2023-04-29T16:19:28.972Z,101092.38
2023-04-29T16:23:30.561Z,101086.59
2023-04-29T16:27:32.211Z,101082.34
2023-04-29T16:31:36.468Z,101099.72
2023-04-29T16:35:38.064Z,101091.84
2023-04-29T16:39:44.470Z,101103.16
2023-04-29T16:43:46.210Z,101098.81
2023-04-29T16:47:47.677Z,101100.56
2023-04-29T16:51:49.677Z,101096.88
2023-04-29T16:55:51.401Z,101104.38
2023-04-29T16:59:53.044Z,101102.75
2023-04-29T17:03:55.433Z,101104.88
2023-04-29T17:07:57.117Z,101115.03
2023-04-29T17:11:58.539Z,101117.94
2023-04-29T17:16:00.054Z,101122.31
2023-04-29T17:20:01.625Z,101123.34
2023-04-29T17:24:03.160Z,101134.00
2023-04-29T17:28:06.180Z,101142.72
2023-04-29T17:32:10.844Z,101144.06
2023-04-29T17:36:12.340Z,101144.59
2023-04-29T17:40:13.862Z,101149.94
2023-04-29T17:44:15.304Z,101148.38
2023-04-29T17:48:19.284Z,101155.19
2023-04-29T17:52:23.518Z,101162.97
2023-04-29T17:56:26.247Z,101166.84
2023-04-29T18:00:27.647Z,101164.81
2023-04-29T18:04:29.081Z,101167.25
2023-04-29T18:08:30.640Z,101162.06
2023-04-29T18:12:34.163Z,101176.88
2023-04-29T18:16:35.729Z,101179.84
2023-04-29T18:20:37.332Z,101186.78
2023-04-29T18:24:38.837Z,101205.72
2023-04-29T18:28:40.260Z,101201.78
2023-04-29T18:32:41.809Z,101209.97
2023-04-29T18:36:43.273Z,101208.63
2023-04-29T18:40:44.746Z,101209.97
2023-04-29T18:44:48.178Z,101209.09
2023-04-29T18:48:49.657Z,101224.63
2023-04-29T18:52:51.102Z,101224.16
2023-04-29T18:56:52.697Z,101239.31
2023-04-29T19:00:54.434Z,101246.94
2023-04-29T19:04:56.668Z,101254.44
2023-04-29T19:08:58.600Z,101251.31
2023-04-29T19:13:00.043Z,101255.91
2023-04-29T19:17:01.492Z,101266.75
2023-04-29T19:21:03.101Z,101271.41
2023-04-29T19:25:05.133Z,101268.66
2023-04-29T19:29:07.269Z,101278.91
2023-04-29T19:33:08.830Z,101275.66
2023-04-29T19:37:10.384Z,101278.44
2023-04-29T19:41:12.014Z,101294.00
2023-04-29T19:45:13.532Z,101281.59
2023-04-29T19:49:14.973Z,101294.38
2023-04-29T19:53:16.872Z,101295.34
2023-04-29T19:57:18.356Z,101297.13
2023-04-29T20:01:19.891Z,101294.91
2023-04-29T20:05:21.392Z,101303.69
2023-04-29T20:09:22.927Z,101313.00
2023-04-29T20:13:24.383Z,101309.75
2023-04-29T20:17:25.932Z,101317.91
2023-04-29T20:21:27.689Z,101318.66
2023-04-29T20:25:29.180Z,101319.16
2023-04-29T20:29:30.676Z,101325.00
2023-04-29T20:33:32.208Z,101330.50
2023-04-29T20:37:33.766Z,101330.66
2023-04-29T20:41:35.413Z,101334.28
2023-04-29T20:45:37.735Z,101339.38
2023-04-29T20:49:39.233Z,101337.63
2023-04-29T20:53:40.780Z,101347.34
2023-04-29T20:57:42.202Z,101345.50
2023-04-29T21:01:45.395Z,101351.16
2023-04-29T21:05:46.939Z,101345.78
2023-04-29T21:09:48.915Z,101349.69
2023-04-29T21:13:51.486Z,101352.69
2023-04-29T21:17:53.021Z,101363.56
2023-04-29T21:21:54.534Z,101369.00
2023-04-29T21:25:56.076Z,101368.97
2023-04-29T21:29:57.704Z,101370.06
2023-04-29T21:34:00.222Z,101379.31
2023-04-29T21:38:01.732Z,101381.38
2023-04-29T21:42:03.946Z,101386.34
2023-04-29T21:46:07.694Z,101383.25
2023-04-29T21:50:10.701Z,101388.50
2023-04-29T21:54:12.169Z,101391.94
2023-04-29T21:58:14.044Z,101398.19
2023-04-29T22:02:22.231Z,101407.09
2023-04-29T22:06:24.957Z,101405.03
2023-04-29T22:10:27.132Z,101417.78
2023-04-29T22:14:28.823Z,101409.88
2023-04-29T22:18:30.326Z,101409.53
2023-04-29T22:22:31.909Z,101422.53
2023-04-29T22:26:33.340Z,101425.22
2023-04-29T22:30:34.844Z,101433.59
2023-04-29T22:34:36.699Z,101443.53
2023-04-29T22:38:38.182Z,101445.88
2023-04-29T22:42:39.731Z,101456.81
2023-04-29T22:46:41.208Z,101460.06
2023-04-29T22:50:49.106Z,101462.44
2023-04-29T22:54:50.559Z,101465.13
2023-04-29T22:58:52.029Z,101470.47
2023-04-29T23:02:53.574Z,101470.41
2023-04-29T23:06:55.026Z,101482.81
2023-04-29T23:10:56.526Z,101481.22
2023-04-29T23:14:57.981Z,101483.06
2023-04-29T23:18:59.440Z,101474.66
2023-04-29T23:23:00.902Z,101483.47
2023-04-29T23:27:05.151Z,101486.44
2023-04-29T23:31:06.657Z,101486.97
2023-04-29T23:35:11.366Z,101485.19
2023-04-29T23:39:13.501Z,101493.63
2023-04-29T23:43:15.097Z,101496.94
2023-04-29T23:47:16.562Z,101493.09
2023-04-29T23:51:17.991Z,101496.38
2023-04-29T23:55:20.622Z,101495.53
2023-04-29T23:59:22.144Z,101498.81
